Time;durP1;ratioP1;P1;durP2;ratioP2;P2;SDS_P1;SDS_P2;PMS_P1;PMS_P2;Temp;Humidity;BMP_temperature;BMP_pressure;BME280_temperature;BME280_humidity;BME280_pressure;Samples;Min_cycle;Max_cycle;Signal;HPM_P1;HPM_P2
2021/03/08 00:02:09;;;;;;;77.60;32.03;;;3.90;91.70;;;;;;4990686;28;20034;-83
2021/03/08 00:04:35;;;;;;;77.60;31.67;;;3.90;91.60;;;;;;5007567;28;20428;-84
2021/03/08 00:07:01;;;;;;;68.55;29.35;;;3.90;91.60;;;;;;4984555;28;20313;-83
2021/03/08 00:09:27;;;;;;;69.47;30.60;;;3.90;91.70;;;;;;4992259;28;20045;-84
2021/03/08 00:11:52;;;;;;;60.83;27.90;;;4.00;91.70;;;;;;4959484;28;20042;-84
2021/03/08 00:14:18;;;;;;;66.78;29.58;;;3.90;91.90;;;;;;4975893;28;20042;-84
2021/03/08 00:16:44;;;;;;;80.55;31.77;;;3.90;91.70;;;;;;4979990;28;20058;-84
2021/03/08 00:19:10;;;;;;;69.88;31.30;;;3.90;91.70;;;;;;4989816;28;20042;-84
2021/03/08 00:21:36;;;;;;;71.20;30.63;;;3.90;91.90;;;;;;4962682;28;20452;-84
2021/03/08 00:24:02;;;;;;;67.78;28.40;;;3.90;91.80;;;;;;4993248;28;20511;-84
2021/03/08 00:26:28;;;;;;;78.13;31.73;;;4.00;91.70;;;;;;4993078;28;20038;-84
2021/03/08 00:28:54;;;;;;;66.20;29.02;;;3.90;91.70;;;;;;5006106;28;20236;-84
2021/03/08 00:31:20;;;;;;;73.78;31.63;;;4.00;91.70;;;;;;4964780;28;20100;-83
2021/03/08 00:33:45;;;;;;;71.95;30.10;;;4.00;91.80;;;;;;4962216;28;20050;-83
2021/03/08 00:36:11;;;;;;;73.57;30.77;;;4.00;91.80;;;;;;4990526;28;20034;-83
2021/03/08 00:38:37;;;;;;;91.60;32.38;;;4.00;91.90;;;;;;4974645;28;20037;-83
2021/03/08 00:41:04;;;;;;;59.10;27.50;;;4.00;91.90;;;;;;4995676;28;20096;-83
2021/03/08 00:43:29;;;;;;;62.60;25.00;;;4.00;91.90;;;;;;4978179;28;20141;-83
2021/03/08 00:45:55;;;;;;;57.72;24.48;;;4.00;92.00;;;;;;4992468;28;20069;-83
2021/03/08 00:48:21;;;;;;;52.70;21.05;;;4.00;92.00;;;;;;4965391;28;20053;-84
2021/03/08 00:50:47;;;;;;;40.05;16.42;;;3.90;92.00;;;;;;4975809;28;20042;-84
2021/03/08 00:53:13;;;;;;;30.35;15.13;;;3.90;92.00;;;;;;4974341;28;20033;-84
2021/03/08 00:55:39;;;;;;;31.27;14.15;;;3.90;92.00;;;;;;4973193;28;20030;-84
2021/03/08 00:58:05;;;;;;;33.65;13.63;;;3.90;91.90;;;;;;4973792;28;20030;-84
2021/03/08 01:00:31;;;;;;;28.73;12.15;;;3.90;92.10;;;;;;4988374;28;20030;-84
2021/03/08 01:02:57;;;;;;;34.13;12.55;;;3.90;92.00;;;;;;4987107;28;20135;-83
2021/03/08 01:05:23;;;;;;;26.58;11.18;;;3.90;92.30;;;;;;4986475;28;20038;-84
2021/03/08 01:07:51;;;;;;;19.65;9.48;;;3.90;92.00;;;;;;4964275;28;20508;-84
2021/03/08 01:10:24;;;;;;;25.60;10.35;;;3.80;92.00;;;;;;4984944;28;20416;-84
2021/03/08 01:12:50;;;;;;;22.08;8.85;;;3.80;92.30;;;;;;5007745;28;20137;-84
2021/03/08 01:15:16;;;;;;;20.17;8.07;;;3.80;92.20;;;;;;4982297;28;20607;-84
2021/03/08 01:17:42;;;;;;;19.98;8.13;;;3.80;92.00;;;;;;4976630;28;20389;-84
2021/03/08 01:20:14;;;;;;;19.02;7.43;;;3.80;92.00;;;;;;4988590;28;20183;-84
2021/03/08 01:22:40;;;;;;;16.15;6.45;;;3.80;92.00;;;;;;4999200;28;20050;-85
2021/03/08 01:25:12;;;;;;;20.08;6.63;;;3.80;92.00;;;;;;4982714;28;20052;-83
2021/03/08 01:27:38;;;;;;;13.70;5.93;;;3.80;91.90;;;;;;5006259;28;20140;-84
2021/03/08 01:30:26;;;;;;;13.50;6.70;;;3.80;91.90;;;;;;5005777;28;20392;-83
2021/03/08 01:32:52;;;;;;;19.77;6.72;;;3.80;91.90;;;;;;5019175;28;20404;-84
2021/03/08 01:35:18;;;;;;;13.10;5.55;;;3.80;91.90;;;;;;4989020;28;20041;-84
2021/03/08 01:37:43;;;;;;;16.17;5.47;;;3.70;91.80;;;;;;4986634;28;20030;-85
2021/03/08 01:40:11;;;;;;;24.05;5.65;;;3.70;91.90;;;;;;4986696;28;20042;-84
2021/03/08 01:42:39;;;;;;;16.70;5.10;;;3.70;91.80;;;;;;5003680;28;20129;-84
2021/03/08 01:45:07;;;;;;;19.02;6.10;;;3.70;91.80;;;;;;4946817;28;21063;-84
2021/03/08 01:47:33;;;;;;;21.58;5.03;;;3.70;91.70;;;;;;4985934;28;20046;-84
2021/03/08 01:49:59;;;;;;;22.85;5.32;;;3.60;91.70;;;;;;4980722;28;20041;-84
2021/03/08 01:52:25;;;;;;;17.13;4.55;;;3.70;91.70;;;;;;4987999;28;20060;-84
2021/03/08 01:54:53;;;;;;;24.33;4.57;;;3.60;91.60;;;;;;4987421;28;20049;-84
2021/03/08 01:57:19;;;;;;;13.75;3.50;;;3.70;91.70;;;;;;4987453;28;20034;-84
2021/03/08 01:59:48;;;;;;;15.38;4.28;;;3.70;91.60;;;;;;4987328;28;20064;-84
2021/03/08 02:02:16;;;;;;;27.38;4.60;;;3.60;91.60;;;;;;5003705;28;20037;-84
2021/03/08 02:04:42;;;;;;;19.17;3.58;;;3.60;91.60;;;;;;4999341;28;20511;-84
2021/03/08 02:07:08;;;;;;;18.38;3.63;;;3.60;91.60;;;;;;4985952;28;20068;-84
2021/03/08 02:09:35;;;;;;;28.10;4.20;;;3.60;91.60;;;;;;4957247;28;20308;-84
2021/03/08 02:12:25;;;;;;;16.50;2.85;;;3.60;91.40;;;;;;4977630;28;20069;-85
2021/03/08 02:15:09;;;;;;;14.60;3.83;;;3.50;91.30;;;;;;5003605;28;20121;-85
2021/03/08 02:17:46;;;;;;;20.63;3.10;;;3.50;91.30;;;;;;5000993;28;20407;-85
2021/03/08 02:20:37;;;;;;;19.45;3.15;;;3.50;91.20;;;;;;5008099;28;20033;-85
2021/03/08 02:23:40;;;;;;;22.33;3.30;;;3.50;91.10;;;;;;4992502;28;20050;-84
2021/03/08 02:26:21;;;;;;;24.88;2.83;;;3.50;91.00;;;;;;4954970;28;20145;-85
2021/03/08 02:28:47;;;;;;;23.20;3.08;;;3.40;91.00;;;;;;4992099;28;20511;-84
2021/03/08 02:31:14;;;;;;;25.77;3.20;;;3.40;91.00;;;;;;5008191;28;20042;-84
2021/03/08 02:33:46;;;;;;;21.90;3.35;;;3.40;91.10;;;;;;5006325;28;20065;-85
2021/03/08 02:36:13;;;;;;;14.30;2.53;;;3.30;91.10;;;;;;5001622;28;20038;-84
2021/03/08 02:38:44;;;;;;;18.10;3.47;;;3.30;91.30;;;;;;5006115;28;20519;-84
2021/03/08 02:41:21;;;;;;;23.35;2.60;;;3.30;91.30;;;;;;5003964;28;20488;-85
2021/03/08 02:43:56;;;;;;;18.58;3.00;;;3.30;91.40;;;;;;4998271;28;20089;-84
2021/03/08 02:46:31;;;;;;;17.13;3.00;;;3.30;91.40;;;;;;5007161;28;20034;-85
2021/03/08 02:49:20;;;;;;;17.65;2.78;;;3.30;91.40;;;;;;5005217;28;20061;-85
2021/03/08 02:51:52;;;;;;;17.55;2.97;;;3.20;91.50;;;;;;5009918;28;20069;-85
2021/03/08 02:54:21;;;;;;;17.73;2.50;;;3.20;91.50;;;;;;5009607;28;20493;-85
2021/03/08 02:56:51;;;;;;;23.60;3.10;;;3.20;91.50;;;;;;5009860;28;20041;-84
2021/03/08 02:59:19;;;;;;;16.48;2.28;;;3.20;91.50;;;;;;5008488;28;20046;-84
2021/03/08 03:01:47;;;;;;;18.65;3.10;;;3.20;91.60;;;;;;5008309;28;20045;-84
2021/03/08 03:04:14;;;;;;;16.25;2.53;;;3.20;91.80;;;;;;4991320;28;20562;-85
2021/03/08 03:06:43;;;;;;;24.40;2.97;;;3.20;91.60;;;;;;4970802;28;20037;-85
2021/03/08 03:09:12;;;;;;;18.33;2.70;;;3.20;91.60;;;;;;5014059;28;20041;-85
2021/03/08 03:11:41;;;;;;;14.07;2.22;;;3.20;91.60;;;;;;5022962;28;20049;-85
2021/03/08 03:14:10;;;;;;;24.08;2.50;;;3.20;91.60;;;;;;5030787;28;20034;-85
2021/03/08 03:16:39;;;;;;;27.25;3.22;;;3.20;91.70;;;;;;5031747;28;20033;-85
2021/03/08 03:19:06;;;;;;;15.68;3.15;;;3.20;91.80;;;;;;5044975;28;20046;-84
2021/03/08 03:21:33;;;;;;;26.33;3.45;;;3.20;91.70;;;;;;5012043;28;20029;-86
2021/03/08 03:24:01;;;;;;;15.68;3.10;;;3.20;91.70;;;;;;5024762;28;20070;-85
2021/03/08 03:26:31;;;;;;;16.20;3.35;;;3.20;91.80;;;;;;4993146;28;20058;-85
2021/03/08 03:28:58;;;;;;;16.40;2.75;;;3.10;91.70;;;;;;5019989;28;20073;-85
2021/03/08 03:31:25;;;;;;;16.08;3.03;;;3.10;91.80;;;;;;5027808;28;20053;-84
2021/03/08 03:33:52;;;;;;;11.75;2.50;;;3.10;91.80;;;;;;5010996;28;20038;-84
2021/03/08 03:36:20;;;;;;;16.42;2.72;;;3.10;91.90;;;;;;5025780;28;20441;-85
2021/03/08 03:38:46;;;;;;;22.63;3.65;;;3.20;91.90;;;;;;5024563;28;20443;-85
2021/03/08 03:41:12;;;;;;;17.42;3.33;;;3.10;91.90;;;;;;5025569;28;20029;-85
2021/03/08 03:43:39;;;;;;;20.48;3.17;;;3.20;92.00;;;;;;4996203;28;20042;-86
2021/03/08 03:46:05;;;;;;;17.52;3.83;;;3.20;92.00;;;;;;5024454;28;20097;-84
2021/03/08 03:48:32;;;;;;;16.25;2.83;;;3.20;92.00;;;;;;5003184;28;20197;-85
2021/03/08 03:50:59;;;;;;;20.00;3.80;;;3.20;92.00;;;;;;5023137;28;20060;-86
2021/03/08 03:53:25;;;;;;;23.67;3.60;;;3.20;92.00;;;;;;5022634;28;20046;-84
2021/03/08 03:55:51;;;;;;;16.13;3.45;;;3.20;92.00;;;;;;5004523;28;20041;-86
2021/03/08 03:58:28;;;;;;;19.50;3.60;;;3.20;91.90;;;;;;5022729;28;20530;-85
2021/03/08 04:01:03;;;;;;;23.85;4.60;;;3.20;92.00;;;;;;5021268;28;20057;-85
2021/03/08 04:03:38;;;;;;;18.15;3.53;;;3.20;91.90;;;;;;5006443;28;20054;-84
2021/03/08 04:06:06;;;;;;;31.17;3.90;;;3.20;92.30;;;;;;5006971;28;20026;-85
2021/03/08 04:08:33;;;;;;;26.50;4.22;;;3.20;92.10;;;;;;5023593;28;20308;-84
2021/03/08 04:11:03;;;;;;;22.23;4.13;;;3.20;92.00;;;;;;5006308;28;20181;-83
2021/03/08 04:13:31;;;;;;;21.42;4.38;;;3.20;92.00;;;;;;5009234;28;20027;-85
2021/03/08 04:15:58;;;;;;;29.52;5.25;;;3.20;92.00;;;;;;5024017;28;20037;-86
2021/03/08 04:18:26;;;;;;;20.90;4.70;;;3.20;92.00;;;;;;5009260;28;20034;-85
2021/03/08 04:20:59;;;;;;;26.08;5.72;;;3.20;92.00;;;;;;5006618;28;20064;-85
2021/03/08 04:23:31;;;;;;;21.20;5.50;;;3.20;92.00;;;;;;5017588;28;20030;-84
2021/03/08 04:25:57;;;;;;;15.03;4.77;;;3.10;91.90;;;;;;5015505;28;20031;-84
2021/03/08 04:28:24;;;;;;;24.60;5.95;;;3.10;91.90;;;;;;5005997;28;20570;-84
2021/03/08 04:30:50;;;;;;;33.78;6.18;;;3.10;91.90;;;;;;5005946;28;20038;-85
2021/03/08 04:33:17;;;;;;;23.83;6.25;;;3.10;91.80;;;;;;5022774;28;20558;-85
2021/03/08 04:35:45;;;;;;;26.60;5.35;;;3.10;91.80;;;;;;5006803;28;20099;-84
2021/03/08 04:38:12;;;;;;;19.67;4.75;;;3.10;91.80;;;;;;5005019;28;20049;-85
2021/03/08 04:40:38;;;;;;;23.98;5.13;;;3.10;91.90;;;;;;5023199;28;20042;-83
2021/03/08 04:43:05;;;;;;;27.65;4.75;;;3.10;91.90;;;;;;4987861;28;20033;-84
2021/03/08 04:45:32;;;;;;;22.30;4.07;;;3.00;91.90;;;;;;5022804;28;20036;-85
2021/03/08 04:47:59;;;;;;;26.63;4.45;;;3.00;91.90;;;;;;5017753;28;20046;-84
2021/03/08 04:50:26;;;;;;;27.40;5.15;;;3.00;92.00;;;;;;5004461;28;20026;-85
2021/03/08 04:52:52;;;;;;;20.73;4.55;;;3.00;92.00;;;;;;5019324;28;20796;-85
2021/03/08 04:55:23;;;;;;;16.55;4.10;;;3.00;92.00;;;;;;5021628;28;20033;-85
2021/03/08 04:57:49;;;;;;;28.92;5.05;;;3.10;92.00;;;;;;5018139;28;20054;-84
2021/03/08 05:00:17;;;;;;;20.75;5.13;;;3.00;92.00;;;;;;5017474;28;20100;-84
2021/03/08 05:02:44;;;;;;;26.23;4.88;;;3.00;92.00;;;;;;4986067;28;20046;-85
2021/03/08 05:05:12;;;;;;;21.55;4.57;;;3.00;92.00;;;;;;5003888;28;20064;-84
2021/03/08 05:07:40;;;;;;;26.23;4.60;;;3.00;92.00;;;;;;5002902;28;20042;-84
2021/03/08 05:10:09;;;;;;;21.23;4.72;;;3.00;92.00;;;;;;5003216;28;20034;-85
2021/03/08 05:12:37;;;;;;;19.77;4.10;;;3.00;92.00;;;;;;5021098;28;20113;-84
2021/03/08 05:15:06;;;;;;;17.25;4.53;;;3.00;92.00;;;;;;5020605;28;20439;-85
2021/03/08 05:17:33;;;;;;;14.77;4.10;;;3.00;92.00;;;;;;5002758;28;20038;-86
2021/03/08 05:20:00;;;;;;;23.80;4.63;;;3.00;92.00;;;;;;5012805;28;20143;-84
2021/03/08 05:22:26;;;;;;;24.33;4.50;;;3.00;92.00;;;;;;5006015;28;20042;-85
2021/03/08 05:24:52;;;;;;;25.38;5.40;;;2.90;92.00;;;;;;5022087;28;20096;-85
2021/03/08 05:27:19;;;;;;;17.55;4.35;;;3.00;92.00;;;;;;5006331;28;20030;-85
2021/03/08 05:29:47;;;;;;;25.48;4.93;;;2.90;92.00;;;;;;5007518;28;20097;-84
2021/03/08 05:32:25;;;;;;;15.80;4.00;;;3.00;92.10;;;;;;5004996;28;20061;-84
2021/03/08 05:34:53;;;;;;;28.48;4.82;;;3.00;92.10;;;;;;5022719;28;20033;-84
2021/03/08 05:37:20;;;;;;;27.23;4.70;;;3.00;92.10;;;;;;5023575;28;20026;-85
2021/03/08 05:39:48;;;;;;;19.70;4.43;;;3.00;92.10;;;;;;5025645;28;20026;-85
2021/03/08 05:42:16;;;;;;;21.77;4.82;;;2.90;92.10;;;;;;5027133;28;20042;-84
2021/03/08 05:44:55;;;;;;;18.60;4.43;;;2.90;92.20;;;;;;5020026;28;20626;-85
2021/03/08 05:48:10;;;;;;;22.23;4.82;;;2.90;92.20;;;;;;5022472;28;20081;-84
2021/03/08 05:50:55;;;;;;;23.40;5.15;;;2.90;92.20;;;;;;5023244;28;20035;-85
2021/03/08 05:53:37;;;;;;;19.48;4.70;;;2.90;92.10;;;;;;5021563;28;20069;-84
2021/03/08 05:56:41;;;;;;;20.13;4.93;;;2.90;92.00;;;;;;5028111;28;20085;-84
2021/03/08 05:59:14;;;;;;;22.33;4.63;;;2.90;92.00;;;;;;5018534;28;20034;-84
2021/03/08 06:01:58;;;;;;;23.90;5.80;;;2.90;92.00;;;;;;5023808;28;20034;-85
2021/03/08 06:04:59;;;;;;;19.58;5.00;;;2.90;92.00;;;;;;5025872;28;20243;-84
2021/03/08 06:07:25;;;;;;;25.60;5.82;;;2.90;92.00;;;;;;5017168;28;20025;-85
2021/03/08 06:10:04;;;;;;;24.80;5.45;;;3.00;92.10;;;;;;5007856;28;20045;-84
2021/03/08 06:12:38;;;;;;;28.63;6.03;;;3.00;92.10;;;;;;5025009;28;20030;-85
2021/03/08 06:15:09;;;;;;;24.60;5.10;;;3.00;92.10;;;;;;5006992;28;20025;-85
2021/03/08 06:17:37;;;;;;;18.08;5.53;;;3.00;92.10;;;;;;5003436;28;20034;-84
2021/03/08 06:20:08;;;;;;;24.30;5.45;;;3.00;92.10;;;;;;5013518;28;20065;-85
2021/03/08 06:22:35;;;;;;;20.50;5.03;;;3.00;92.00;;;;;;5025374;28;20155;-85
2021/03/08 06:25:03;;;;;;;18.85;4.30;;;3.00;92.10;;;;;;5005750;28;20184;-84
2021/03/08 06:27:29;;;;;;;18.67;5.57;;;3.00;92.10;;;;;;4995535;28;20094;-83
2021/03/08 06:29:56;;;;;;;16.92;4.85;;;3.00;92.20;;;;;;5005873;28;20065;-83
2021/03/08 06:32:24;;;;;;;22.13;4.88;;;3.00;92.20;;;;;;5006687;28;20057;-84
2021/03/08 06:34:50;;;;;;;22.98;4.40;;;3.00;92.20;;;;;;5022296;28;20041;-85
2021/03/08 06:37:18;;;;;;;18.13;4.65;;;3.00;92.10;;;;;;4999721;28;20038;-85
2021/03/08 06:39:45;;;;;;;27.70;4.68;;;3.00;92.10;;;;;;5003242;28;20050;-85
2021/03/08 06:42:13;;;;;;;33.30;5.22;;;3.00;92.20;;;;;;5005470;28;20042;-85
2021/03/08 06:44:39;;;;;;;15.55;4.15;;;3.00;92.10;;;;;;4998985;28;20042;-85
2021/03/08 06:47:06;;;;;;;23.13;4.80;;;3.10;92.20;;;;;;5021208;28;20062;-85
2021/03/08 06:49:33;;;;;;;23.98;4.90;;;3.10;92.20;;;;;;5021278;28;20130;-85
2021/03/08 06:52:08;;;;;;;18.40;4.57;;;3.10;92.20;;;;;;5020593;28;20062;-86
2021/03/08 06:55:01;;;;;;;22.50;5.03;;;3.10;92.20;;;;;;5015109;28;20054;-84
2021/03/08 06:57:29;;;;;;;20.73;4.38;;;3.10;92.00;;;;;;5014358;28;20096;-86
2021/03/08 06:59:57;;;;;;;20.48;4.38;;;3.10;92.20;;;;;;5023825;28;20045;-85
2021/03/08 07:02:46;;;;;;;23.02;4.30;;;3.20;92.20;;;;;;4996050;28;20046;-85
2021/03/08 07:05:22;;;;;;;22.33;4.38;;;3.20;92.10;;;;;;5009425;28;20046;-85
2021/03/08 07:08:01;;;;;;;22.27;4.72;;;3.20;92.10;;;;;;5008669;28;20062;-85
2021/03/08 07:10:43;;;;;;;21.35;3.60;;;3.30;92.10;;;;;;4989845;28;20033;-85
2021/03/08 07:13:10;;;;;;;18.05;3.58;;;3.30;92.10;;;;;;5008931;28;20038;-84
2021/03/08 07:16:01;;;;;;;24.40;5.07;;;3.30;92.10;;;;;;5004934;28;20030;-84
2021/03/08 07:18:27;;;;;;;19.17;3.67;;;3.30;92.10;;;;;;5008112;28;20034;-85
2021/03/08 07:20:54;;;;;;;21.10;5.03;;;3.40;92.00;;;;;;5025473;28;20042;-86
2021/03/08 07:23:25;;;;;;;22.55;3.88;;;3.40;91.90;;;;;;4986017;28;20158;-85
2021/03/08 07:26:29;;;;;;;20.35;4.70;;;3.40;91.90;;;;;;5008578;28;20109;-86
2021/03/08 07:29:13;;;;;;;22.75;4.18;;;3.50;92.00;;;;;;5001517;28;20479;-85
2021/03/08 07:31:59;;;;;;;20.42;3.85;;;3.50;91.90;;;;;;5025784;28;20116;-85
2021/03/08 07:34:25;;;;;;;16.55;4.05;;;3.50;91.70;;;;;;5009550;28;20060;-85
2021/03/08 07:37:01;;;;;;;25.30;4.85;;;3.50;91.50;;;;;;4981136;28;20049;-85
2021/03/08 07:39:28;;;;;;;21.33;4.68;;;3.50;91.50;;;;;;5028433;28;20037;-85
2021/03/08 07:42:04;;;;;;;26.42;4.85;;;3.50;91.50;;;;;;5010475;28;20038;-85
2021/03/08 07:44:31;;;;;;;23.98;3.65;;;3.40;91.50;;;;;;5008979;28;20395;-84
2021/03/08 07:46:59;;;;;;;23.75;4.45;;;3.40;91.50;;;;;;5007049;28;20042;-85
2021/03/08 07:49:34;;;;;;;26.77;4.25;;;3.40;91.30;;;;;;5024725;28;20042;-84
2021/03/08 07:52:08;;;;;;;15.07;4.22;;;3.50;91.40;;;;;;5025452;28;20054;-85
2021/03/08 07:54:57;;;;;;;23.38;4.35;;;3.50;91.20;;;;;;5023514;28;20309;-84
2021/03/08 07:57:24;;;;;;;13.77;3.70;;;3.50;91.30;;;;;;4997783;28;20057;-85
2021/03/08 07:59:50;;;;;;;25.10;4.32;;;3.50;91.20;;;;;;5018862;28;20047;-84
2021/03/08 08:02:17;;;;;;;32.10;4.97;;;3.50;91.10;;;;;;4996218;28;20042;-85
2021/03/08 08:04:43;;;;;;;22.05;3.97;;;3.50;91.10;;;;;;5023784;28;20044;-83
2021/03/08 08:07:11;;;;;;;21.73;3.50;;;3.50;91.00;;;;;;5010478;28;20038;-85
2021/03/08 08:09:42;;;;;;;23.10;4.13;;;3.60;91.00;;;;;;5024078;28;20094;-85
2021/03/08 08:12:11;;;;;;;20.52;3.65;;;3.60;91.00;;;;;;4998858;28;20042;-85
2021/03/08 08:14:42;;;;;;;25.15;4.78;;;3.70;90.90;;;;;;5007684;28;20046;-85
2021/03/08 08:17:09;;;;;;;17.70;3.80;;;3.70;90.90;;;;;;5029273;28;20038;-85
2021/03/08 08:19:46;;;;;;;21.77;4.30;;;3.80;91.00;;;;;;5022806;28;20046;-84
2021/03/08 08:22:24;;;;;;;28.17;3.83;;;3.80;90.90;;;;;;5026501;28;20061;-85
2021/03/08 08:24:54;;;;;;;20.50;3.95;;;3.80;90.80;;;;;;5013504;28;20034;-85
2021/03/08 08:27:22;;;;;;;22.95;4.43;;;3.80;90.70;;;;;;5020194;28;20519;-85
2021/03/08 08:29:49;;;;;;;21.05;3.90;;;3.80;90.90;;;;;;5028220;28;20751;-85
2021/03/08 08:32:17;;;;;;;12.75;3.20;;;3.90;90.80;;;;;;5025860;28;20072;-86
2021/03/08 08:34:45;;;;;;;15.00;4.15;;;4.00;91.00;;;;;;5031436;28;20053;-85
2021/03/08 08:37:15;;;;;;;18.10;3.67;;;4.00;91.10;;;;;;5028114;28;20037;-85
2021/03/08 08:40:04;;;;;;;28.17;3.97;;;4.10;91.00;;;;;;5028572;28;20033;-85
2021/03/08 08:42:32;;;;;;;26.15;3.95;;;4.20;91.10;;;;;;4992464;28;20049;-85
2021/03/08 08:44:59;;;;;;;22.83;3.97;;;4.20;91.00;;;;;;5020478;28;20033;-85
2021/03/08 08:47:33;;;;;;;16.48;3.53;;;4.30;91.10;;;;;;5020692;28;20049;-85
2021/03/08 08:50:04;;;;;;;21.40;4.00;;;4.40;90.90;;;;;;5022240;28;20033;-85
2021/03/08 08:52:54;;;;;;;18.77;3.85;;;4.40;90.90;;;;;;5017942;28;20076;-85
2021/03/08 08:55:22;;;;;;;21.17;3.67;;;4.40;90.60;;;;;;5016137;28;20034;-85
2021/03/08 08:58:16;;;;;;;22.75;4.30;;;4.50;90.60;;;;;;4996636;28;20053;-85
2021/03/08 09:00:42;;;;;;;24.92;3.78;;;4.50;90.70;;;;;;5012407;28;20041;-86
2021/03/08 09:03:17;;;;;;;18.88;4.07;;;4.50;90.50;;;;;;5016197;28;20050;-84
2021/03/08 09:05:43;;;;;;;11.23;3.08;;;4.60;90.40;;;;;;4996906;28;20357;-86
2021/03/08 09:08:21;;;;;;;20.42;3.67;;;4.70;90.30;;;;;;4996747;28;20068;-85
2021/03/08 09:10:47;;;;;;;21.52;3.60;;;4.90;90.20;;;;;;5015988;28;20029;-84
2021/03/08 09:13:13;;;;;;;23.85;4.07;;;5.00;90.10;;;;;;5013947;28;20117;-84
2021/03/08 09:15:39;;;;;;;21.13;3.53;;;5.20;89.60;;;;;;5005934;28;20449;-84
2021/03/08 09:18:05;;;;;;;17.67;3.47;;;5.30;89.20;;;;;;4995906;28;20128;-84
2021/03/08 09:20:35;;;;;;;16.45;3.17;;;5.40;88.40;;;;;;5012143;28;20056;-84
2021/03/08 09:23:02;;;;;;;18.40;3.20;;;5.40;88.50;;;;;;5015050;28;20607;-84
2021/03/08 09:25:33;;;;;;;12.85;2.88;;;5.50;88.90;;;;;;5010154;28;20026;-84
2021/03/08 09:28:05;;;;;;;17.05;3.20;;;5.70;87.50;;;;;;4988257;28;20083;-84
2021/03/08 09:30:49;;;;;;;18.20;3.22;;;5.80;86.90;;;;;;4997090;28;20045;-85
2021/03/08 09:33:18;;;;;;;15.80;3.55;;;5.90;86.30;;;;;;4974906;28;20477;-85
2021/03/08 09:35:53;;;;;;;16.40;3.08;;;6.00;85.70;;;;;;5011971;28;20444;-85
2021/03/08 09:38:20;;;;;;;19.00;3.13;;;6.00;85.40;;;;;;4996364;28;20037;-85
2021/03/08 09:40:53;;;;;;;16.05;3.45;;;6.10;84.40;;;;;;4997366;28;20049;-85
2021/03/08 09:43:20;;;;;;;14.37;3.03;;;6.10;84.70;;;;;;4994284;28;20496;-84
2021/03/08 09:46:03;;;;;;;23.92;3.42;;;6.20;85.40;;;;;;5009308;28;20289;-83
2021/03/08 09:48:31;;;;;;;19.73;3.25;;;6.30;84.50;;;;;;5010976;28;20042;-84
2021/03/08 09:51:08;;;;;;;17.98;3.58;;;6.50;83.60;;;;;;5006102;28;20030;-84
2021/03/08 09:53:36;;;;;;;18.35;3.30;;;6.60;83.10;;;;;;5008038;28;20489;-85
2021/03/08 09:56:04;;;;;;;17.05;3.17;;;6.70;83.70;;;;;;4999707;28;20064;-84
2021/03/08 09:58:30;;;;;;;12.57;2.92;;;6.70;82.70;;;;;;4990392;28;20038;-84
2021/03/08 10:00:59;;;;;;;20.65;3.58;;;6.70;82.60;;;;;;4990571;28;20054;-82
2021/03/08 10:03:25;;;;;;;14.07;3.30;;;6.80;82.70;;;;;;4984776;28;20037;-85
2021/03/08 10:05:55;;;;;;;15.98;3.00;;;6.80;82.30;;;;;;4994240;28;20103;-84
2021/03/08 10:08:29;;;;;;;18.23;3.22;;;6.80;81.80;;;;;;4992308;28;20039;-85
2021/03/08 10:10:56;;;;;;;18.75;3.67;;;6.70;81.40;;;;;;4996730;28;20031;-84
2021/03/08 10:13:23;;;;;;;14.73;3.38;;;6.60;82.10;;;;;;5007271;28;20029;-84
2021/03/08 10:15:56;;;;;;;20.63;3.95;;;6.60;81.20;;;;;;4991428;28;20030;-84
2021/03/08 10:18:25;;;;;;;20.40;3.25;;;6.60;81.80;;;;;;4990547;28;20042;-86
2021/03/08 10:20:51;;;;;;;16.10;3.40;;;6.70;81.70;;;;;;4979610;28;20351;-84
2021/03/08 10:23:36;;;;;;;14.98;2.70;;;6.70;82.40;;;;;;5005916;28;20029;-84
2021/03/08 10:26:08;;;;;;;11.77;3.03;;;6.80;80.30;;;;;;5012658;28;20485;-86
2021/03/08 10:28:43;;;;;;;9.52;2.83;;;6.90;80.10;;;;;;5010421;28;20069;-85
2021/03/08 10:31:23;;;;;;;12.60;3.33;;;7.00;79.00;;;;;;5020870;28;20026;-84
2021/03/08 10:34:03;;;;;;;14.98;2.67;;;7.10;77.80;;;;;;5007517;28;20465;-84
2021/03/08 10:36:34;;;;;;;13.90;2.67;;;7.10;77.20;;;;;;5009740;28;20053;-84
2021/03/08 10:39:04;;;;;;;10.43;3.17;;;7.20;77.50;;;;;;5009701;28;20030;-84
2021/03/08 10:41:31;;;;;;;14.50;3.03;;;7.20;77.40;;;;;;5009140;28;20038;-84
2021/03/08 10:43:58;;;;;;;12.43;2.50;;;7.30;76.20;;;;;;4992663;28;20049;-88
2021/03/08 10:46:34;;;;;;;11.05;2.25;;;7.20;75.30;;;;;;5010092;28;20046;-85
2021/03/08 10:49:05;;;;;;;15.23;2.70;;;7.30;75.70;;;;;;4992755;28;20484;-84
2021/03/08 10:51:35;;;;;;;13.90;2.53;;;7.30;74.50;;;;;;4998735;28;20034;-87
2021/03/08 10:54:03;;;;;;;14.70;2.60;;;7.30;75.20;;;;;;5009809;28;20041;-84
2021/03/08 10:56:30;;;;;;;12.18;2.50;;;7.40;76.30;;;;;;5004982;28;20052;-85
2021/03/08 10:59:00;;;;;;;14.35;2.55;;;7.50;76.50;;;;;;5002870;28;20034;-85
2021/03/08 11:01:28;;;;;;;17.25;3.00;;;7.60;75.80;;;;;;5006655;28;20128;-85
2021/03/08 11:03:55;;;;;;;10.20;2.42;;;7.60;74.80;;;;;;4990558;28;20113;-85
2021/03/08 11:06:22;;;;;;;15.02;3.10;;;7.70;74.50;;;;;;4982228;28;20124;-86
2021/03/08 11:09:03;;;;;;;16.05;2.97;;;7.80;74.60;;;;;;5009554;28;20034;-86
2021/03/08 11:11:34;;;;;;;10.13;2.58;;;8.00;74.00;;;;;;4996042;28;20053;-84
2021/03/08 11:14:06;;;;;;;18.80;2.78;;;8.20;74.00;;;;;;4985783;28;20069;-85
2021/03/08 11:16:33;;;;;;;11.77;2.63;;;8.20;72.60;;;;;;4992065;28;20037;-84
2021/03/08 11:19:22;;;;;;;13.18;2.78;;;8.20;72.50;;;;;;5003745;28;20038;-84
2021/03/08 11:22:05;;;;;;;11.43;2.88;;;8.20;71.80;;;;;;4989353;28;20050;-85
2021/03/08 11:24:39;;;;;;;10.90;2.70;;;8.20;71.80;;;;;;5001693;28;20037;-85
2021/03/08 11:27:16;;;;;;;15.82;3.60;;;8.20;71.70;;;;;;5009733;28;20064;-85
2021/03/08 11:29:57;;;;;;;12.32;2.85;;;8.10;71.40;;;;;;5007392;28;20041;-85
2021/03/08 11:32:28;;;;;;;12.70;3.42;;;8.10;70.90;;;;;;5007980;28;20104;-84
2021/03/08 11:34:55;;;;;;;10.88;2.60;;;8.10;71.40;;;;;;4999428;28;20046;-85
2021/03/08 11:37:23;;;;;;;18.85;2.65;;;8.10;71.40;;;;;;5004929;28;20414;-85
2021/03/08 11:40:03;;;;;;;10.88;2.70;;;8.20;71.70;;;;;;4988973;28;20145;-84
2021/03/08 11:42:29;;;;;;;12.15;2.47;;;8.30;71.90;;;;;;5004330;28;20104;-84
2021/03/08 11:44:57;;;;;;;12.65;2.95;;;8.20;71.70;;;;;;5007188;28;20053;-85
2021/03/08 11:47:23;;;;;;;8.45;2.70;;;8.30;72.10;;;;;;5007609;28;20041;-83
2021/03/08 11:49:49;;;;;;;10.52;3.05;;;8.30;71.70;;;;;;5007895;28;20437;-85
2021/03/08 11:52:16;;;;;;;15.38;3.15;;;8.40;71.40;;;;;;4991803;28;20517;-85
2021/03/08 11:54:43;;;;;;;15.90;2.55;;;8.40;71.10;;;;;;4966477;28;20043;-85
2021/03/08 11:57:10;;;;;;;14.07;2.70;;;8.60;70.70;;;;;;5002758;28;20080;-85
2021/03/08 11:59:37;;;;;;;18.52;2.92;;;8.70;69.80;;;;;;4992347;28;20074;-85
2021/03/08 12:02:04;;;;;;;13.90;2.75;;;8.80;69.50;;;;;;5007761;28;20037;-87
2021/03/08 12:04:30;;;;;;;8.65;2.20;;;8.80;69.50;;;;;;4992386;28;20029;-85
2021/03/08 12:06:56;;;;;;;10.15;2.47;;;8.80;68.50;;;;;;5006580;28;20455;-85
2021/03/08 12:09:22;;;;;;;14.93;2.80;;;8.80;68.50;;;;;;5003422;28;20524;-85
2021/03/08 12:11:50;;;;;;;17.55;2.92;;;8.80;68.40;;;;;;5002981;28;20065;-84
2021/03/08 12:14:16;;;;;;;16.63;3.03;;;8.80;68.30;;;;;;4990809;28;20041;-83
2021/03/08 12:16:43;;;;;;;12.55;2.45;;;8.70;68.50;;;;;;4970216;28;20046;-84
2021/03/08 12:19:09;;;;;;;11.68;2.50;;;8.70;69.00;;;;;;4973608;28;20038;-85
2021/03/08 12:21:35;;;;;;;14.25;2.60;;;8.70;69.00;;;;;;4990802;28;20057;-86
2021/03/08 12:24:01;;;;;;;13.13;3.17;;;8.70;68.30;;;;;;5023760;28;20034;-86
2021/03/08 12:26:27;;;;;;;11.38;2.22;;;8.70;68.00;;;;;;4973609;28;20047;-86
2021/03/08 12:28:53;;;;;;;9.00;2.10;;;8.70;68.30;;;;;;4983325;28;20362;-86
2021/03/08 12:31:21;;;;;;;10.82;2.42;;;8.60;68.20;;;;;;4990044;28;20124;-86
2021/03/08 12:33:47;;;;;;;12.30;2.58;;;8.70;68.30;;;;;;5006305;28;20033;-86
2021/03/08 12:36:15;;;;;;;13.07;2.83;;;8.80;68.60;;;;;;5006695;28;20042;-86
2021/03/08 12:38:41;;;;;;;11.90;2.53;;;8.90;68.30;;;;;;4981992;28;20149;-86
2021/03/08 12:41:07;;;;;;;8.75;2.80;;;8.90;67.70;;;;;;5006958;28;20037;-85
2021/03/08 12:43:32;;;;;;;10.75;2.35;;;8.90;67.90;;;;;;4987045;28;20038;-86
2021/03/08 12:45:58;;;;;;;15.77;3.10;;;8.90;67.80;;;;;;4990184;28;20153;-85
2021/03/08 12:48:24;;;;;;;12.38;2.83;;;8.90;67.70;;;;;;5001518;28;20054;-86
2021/03/08 12:50:50;;;;;;;8.25;2.42;;;8.80;67.30;;;;;;4990064;28;20510;-85
2021/03/08 12:53:16;;;;;;;9.32;2.63;;;8.80;67.50;;;;;;4992061;28;20463;-84
2021/03/08 12:55:42;;;;;;;8.27;2.40;;;8.70;66.90;;;;;;4975220;28;20038;-84
2021/03/08 12:58:08;;;;;;;15.93;3.25;;;8.60;67.00;;;;;;4991188;28;20088;-85
2021/03/08 13:00:35;;;;;;;16.35;2.78;;;8.50;67.10;;;;;;4994175;28;20042;-85
2021/03/08 13:03:01;;;;;;;11.43;2.50;;;8.40;68.00;;;;;;5008265;28;20099;-85